Weidmanville, Pennsylvania
Current Conditions -  °F | °C
As of 11:53 PM on Saturday 22 Nov 2014 (Local Time) from KLNS Reporting Station
Overcast Overcast  
Wind Chill: 33°   Ceiling: 11000
Heat Index: 33°   Visibility: 9mi
Dew Point: 25°   Wind: 3mph
Humidity: 72%   Direction: 100°E
Pressure: 30.21"   Gusts: NA
Location:  40.1811°N, 76.176°W
Report Text: KLNS 230453Z AUTO 10003KT 9SM FEW075 OVC110 01/M04 A3021 RMK AO2 SLP234 T00061039 400561089
Loading
Personal Weather Stations






























Interactive Weather Map New forecast layout! Learn more

10-Day Weather Forecast

Advertisements
Track Severe Weather on mobile